Time,TemperatureF,DewpointF,PressureIn,WindDirection,WindDirectionDegrees,WindSpeedMPH,WindSpeedGustMPH,Humidity,HourlyPrecipIn,Conditions,Clouds,dailyrainin,SolarRadiationWatts/m^2,SoftwareType,DateUTC
2013-06-12 00:01:00,79.4,29.3,29.69,ESE,107,2.0,2.0,16,0.00,,,0.00,0,WeatherCatV1.11B39,2013-06-12 07:01:00,
2013-06-12 00:06:00,78.9,28.9,29.68,ESE,107,2.0,2.0,16,0.00,,,0.00,0,WeatherCatV1.11B39,2013-06-12 07:06:00,
2013-06-12 00:11:00,78.3,29.9,29.68,ESE,107,0.0,0.0,17,0.00,,,0.00,0,WeatherCatV1.11B39,2013-06-12 07:11:00,
2013-06-12 00:16:00,78.2,29.8,29.69,ESE,107,2.0,2.0,17,0.00,,,0.00,0,WeatherCatV1.11B39,2013-06-12 07:16:00,
2013-06-12 00:21:00,77.1,28.9,29.69,ESE,107,0.0,2.0,17,0.00,,,0.00,0,WeatherCatV1.11B39,2013-06-12 07:21:00,
2013-06-12 00:26:00,76.6,29.9,29.69,ESE,107,2.0,2.0,18,0.00,,,0.00,0,WeatherCatV1.11B39,2013-06-12 07:26:00,
2013-06-12 00:31:00,77.7,29.4,29.69,ESE,105,3.0,3.0,17,0.00,,,0.00,0,WeatherCatV1.11B39,2013-06-12 07:31:00,
2013-06-12 00:36:00,78.8,28.8,29.69,ESE,105,1.0,2.0,16,0.00,,,0.00,0,WeatherCatV1.11B39,2013-06-12 07:36:00,
2013-06-12 00:41:00,79.1,29.0,29.69,ESE,105,1.0,2.0,16,0.00,,,0.00,0,WeatherCatV1.11B39,2013-06-12 07:41:00,
2013-06-12 00:46:00,78.4,28.5,29.69,ESE,105,2.0,3.0,16,0.00,,,0.00,0,WeatherCatV1.11B39,2013-06-12 07:46:00,
2013-06-12 00:51:00,78.6,28.6,29.69,ESE,105,1.0,1.0,16,0.00,,,0.00,0,WeatherCatV1.11B39,2013-06-12 07:51:00,
2013-06-12 00:56:00,77.5,29.2,29.69,ESE,105,2.0,3.0,17,0.00,,,0.00,0,WeatherCatV1.11B39,2013-06-12 07:56:00,
2013-06-12 01:01:00,77.2,29.0,29.69,ESE,105,2.0,2.0,17,0.00,,,0.00,0,WeatherCatV1.11B39,2013-06-12 08:01:00,
2013-06-12 01:06:00,78.2,28.3,29.69,ESE,105,0.0,1.0,16,0.00,,,0.00,0,WeatherCatV1.11B39,2013-06-12 08:06:00,
2013-06-12 01:11:00,77.4,29.2,29.69,ESE,105,0.0,1.0,17,0.00,,,0.00,0,WeatherCatV1.11B39,2013-06-12 08:11:00,
2013-06-12 01:16:00,77.1,28.9,29.69,ESE,105,0.0,1.0,17,0.00,,,0.00,0,WeatherCatV1.11B39,2013-06-12 08:16:00,
2013-06-12 01:21:00,76.5,29.8,29.69,ESE,105,0.0,1.0,18,0.00,,,0.00,0,WeatherCatV1.11B39,2013-06-12 08:21:00,
2013-06-12 01:26:00,75.7,30.5,29.69,ESE,105,0.0,2.0,19,0.00,,,0.00,0,WeatherCatV1.11B39,2013-06-12 08:26:00,
2013-06-12 01:31:00,75.4,30.3,29.69,ESE,105,0.0,0.0,19,0.00,,,0.00,0,WeatherCatV1.11B39,2013-06-12 08:31:00,
2013-06-12 01:36:00,74.5,30.8,29.69,ESE,105,1.0,1.0,20,0.00,,,0.00,0,WeatherCatV1.11B39,2013-06-12 08:36:00,
2013-06-12 01:41:00,74.9,29.9,29.69,ESE,105,0.0,1.0,19,0.00,,,0.00,0,WeatherCatV1.11B39,2013-06-12 08:41:00,
2013-06-12 01:46:00,74.4,30.7,29.69,ESE,105,0.0,1.0,20,0.00,,,0.00,0,WeatherCatV1.11B39,2013-06-12 08:46:00,
2013-06-12 01:51:00,74.2,30.5,29.69,ESE,105,1.0,1.0,20,0.00,,,0.00,0,WeatherCatV1.11B39,2013-06-12 08:51:00,
2013-06-12 01:56:00,74.2,30.5,29.69,ESE,105,0.0,1.0,20,0.00,,,0.00,0,WeatherCatV1.11B39,2013-06-12 08:56:00,
2013-06-12 02:01:00,73.6,30.0,29.69,ESE,105,1.0,1.0,20,0.00,,,0.00,0,WeatherCatV1.11B39,2013-06-12 09:01:00,
2013-06-12 02:06:00,73.7,30.1,29.69,ESE,105,1.0,2.0,20,0.00,,,0.00,0,WeatherCatV1.11B39,2013-06-12 09:06:00,
2013-06-12 02:11:00,73.4,29.9,29.69,ESE,105,1.0,1.0,20,0.00,,,0.00,0,WeatherCatV1.11B39,2013-06-12 09:11:00,
2013-06-12 02:24:00,72.5,31.5,29.69,ESE,105,1.0,1.0,22,0.00,,,0.00,0,WeatherCatV1.11B39,2013-06-12 09:24:00,
2013-06-12 02:29:00,71.8,29.8,29.70,ESE,105,2.0,3.0,21,0.00,,,0.00,0,WeatherCatV1.11B39,2013-06-12 09:29:00,
2013-06-12 02:34:00,71.3,30.5,29.69,ESE,104,2.0,3.0,22,0.00,,,0.00,0,WeatherCatV1.11B39,2013-06-12 09:34:00,
2013-06-12 02:39:00,71.6,30.7,29.70,ESE,104,0.0,2.0,22,0.00,,,0.00,0,WeatherCatV1.11B39,2013-06-12 09:39:00,
2013-06-12 02:44:00,72.3,30.2,29.70,ESE,104,0.0,0.0,21,0.00,,,0.00,0,WeatherCatV1.11B39,2013-06-12 09:44:00,
2013-06-12 02:49:00,72.1,31.2,29.70,ESE,104,0.0,1.0,22,0.00,,,0.00,0,WeatherCatV1.11B39,2013-06-12 09:49:00,
2013-06-12 02:54:00,72.0,31.1,29.70,ESE,104,0.0,0.0,22,0.00,,,0.00,0,WeatherCatV1.11B39,2013-06-12 09:54:00,
2013-06-12 02:59:00,71.9,31.0,29.70,ESE,104,0.0,1.0,22,0.00,,,0.00,0,WeatherCatV1.11B39,2013-06-12 09:59:00,
2013-06-12 03:04:00,71.6,31.8,29.70,ESE,104,0.0,1.0,23,0.00,,,0.00,0,WeatherCatV1.11B39,2013-06-12 10:04:00,
2013-06-12 03:09:00,71.4,31.7,29.70,ESE,104,0.0,1.0,23,0.00,,,0.00,0,WeatherCatV1.11B39,2013-06-12 10:09:00,
2013-06-12 03:14:00,71.4,31.7,29.70,ESE,104,0.0,0.0,23,0.00,,,0.00,0,WeatherCatV1.11B39,2013-06-12 10:14:00,
2013-06-12 03:19:00,71.3,30.5,29.70,ESE,104,0.0,1.0,22,0.00,,,0.00,0,WeatherCatV1.11B39,2013-06-12 10:19:00,
2013-06-12 03:24:00,71.0,31.3,29.70,ESE,104,0.0,1.0,23,0.00,,,0.00,0,WeatherCatV1.11B39,2013-06-12 10:24:00,
2013-06-12 03:29:00,70.9,31.2,29.70,ESE,104,0.0,1.0,23,0.00,,,0.00,0,WeatherCatV1.11B39,2013-06-12 10:29:00,
2013-06-12 03:34:00,70.6,32.0,29.71,ESE,104,3.0,3.0,24,0.00,,,0.00,0,WeatherCatV1.11B39,2013-06-12 10:34:00,
2013-06-12 03:39:00,70.5,32.0,29.71,ESE,104,2.0,3.0,24,0.00,,,0.00,0,WeatherCatV1.11B39,2013-06-12 10:39:00,
2013-06-12 03:44:00,71.0,31.3,29.71,ESE,104,2.0,3.0,23,0.00,,,0.00,0,WeatherCatV1.11B39,2013-06-12 10:44:00,
2013-06-12 03:49:00,71.2,31.5,29.71,ESE,104,0.0,0.0,23,0.00,,,0.00,0,WeatherCatV1.11B39,2013-06-12 10:49:00,
2013-06-12 03:54:00,71.1,31.4,29.71,ESE,104,0.0,3.0,23,0.00,,,0.00,0,WeatherCatV1.11B39,2013-06-12 10:54:00,
2013-06-12 03:59:00,71.2,31.5,29.71,ESE,104,1.0,1.0,23,0.00,,,0.00,0,WeatherCatV1.11B39,2013-06-12 10:59:00,
2013-06-12 04:04:00,71.1,31.4,29.71,ESE,104,2.0,2.0,23,0.00,,,0.00,0,WeatherCatV1.11B39,2013-06-12 11:04:00,
2013-06-12 04:09:00,70.8,32.2,29.71,ESE,104,0.0,0.0,24,0.00,,,0.00,0,WeatherCatV1.11B39,2013-06-12 11:09:00,
2013-06-12 04:14:00,70.4,30.8,29.71,ESE,104,1.0,1.0,23,0.00,,,0.00,0,WeatherCatV1.11B39,2013-06-12 11:14:00,
2013-06-12 04:19:00,70.0,31.5,29.72,ESE,104,0.0,1.0,24,0.00,,,0.00,0,WeatherCatV1.11B39,2013-06-12 11:19:00,
2013-06-12 04:24:00,69.6,31.2,29.72,ESE,104,0.0,1.0,24,0.00,,,0.00,0,WeatherCatV1.11B39,2013-06-12 11:24:00,
2013-06-12 04:29:00,69.6,32.2,29.72,ESE,104,1.0,2.0,25,0.00,,,0.00,0,WeatherCatV1.11B39,2013-06-12 11:29:00,
2013-06-12 04:34:00,69.7,31.3,29.72,ESE,104,0.0,1.0,24,0.00,,,0.00,0,WeatherCatV1.11B39,2013-06-12 11:34:00,
2013-06-12 04:39:00,70.1,31.6,29.72,ESE,104,0.0,2.0,24,0.00,,,0.00,0,WeatherCatV1.11B39,2013-06-12 11:39:00,
2013-06-12 04:44:00,69.9,31.5,29.72,ESE,104,0.0,2.0,24,0.00,,,0.00,0,WeatherCatV1.11B39,2013-06-12 11:44:00,
2013-06-12 04:49:00,69.5,31.1,29.72,ESE,104,1.0,1.0,24,0.00,,,0.00,0,WeatherCatV1.11B39,2013-06-12 11:49:00,
2013-06-12 04:54:00,69.2,31.9,29.72,ESE,104,0.0,1.0,25,0.00,,,0.00,0,WeatherCatV1.11B39,2013-06-12 11:54:00,
2013-06-12 04:59:00,69.0,31.7,29.72,ESE,104,0.0,1.0,25,0.00,,,0.00,0,WeatherCatV1.11B39,2013-06-12 11:59:00,
2013-06-12 05:04:00,68.4,32.2,29.73,ESE,104,0.0,1.0,26,0.00,,,0.00,0,WeatherCatV1.11B39,2013-06-12 12:04:00,
2013-06-12 05:09:00,67.9,31.7,29.73,ESE,104,0.0,1.0,26,0.00,,,0.00,0,WeatherCatV1.11B39,2013-06-12 12:09:00,
2013-06-12 05:14:00,67.8,31.7,29.73,ESE,104,2.0,2.0,26,0.00,,,0.00,5,WeatherCatV1.11B39,2013-06-12 12:14:00,
2013-06-12 05:19:00,67.7,31.6,29.73,ESE,104,1.0,2.0,26,0.00,,,0.00,7,WeatherCatV1.11B39,2013-06-12 12:19:00,
2013-06-12 05:24:00,67.9,32.7,29.73,ESE,104,0.0,1.0,27,0.00,,,0.00,12,WeatherCatV1.11B39,2013-06-12 12:24:00,
2013-06-12 05:29:00,68.3,32.1,29.73,ESE,104,0.0,1.0,26,0.00,,,0.00,16,WeatherCatV1.11B39,2013-06-12 12:29:00,
2013-06-12 05:34:00,68.6,33.3,29.74,ESE,104,0.0,0.0,27,0.00,,,0.00,21,WeatherCatV1.11B39,2013-06-12 12:34:00,
2013-06-12 05:39:00,68.3,33.0,29.74,ESE,104,0.0,1.0,27,0.00,,,0.00,26,WeatherCatV1.11B39,2013-06-12 12:39:00,
2013-06-12 05:44:00,68.5,34.1,29.74,ESE,104,0.0,0.0,28,0.00,,,0.00,39,WeatherCatV1.11B39,2013-06-12 12:44:00,
2013-06-12 05:49:00,68.8,33.5,29.74,ESE,104,0.0,0.0,27,0.00,,,0.00,49,WeatherCatV1.11B39,2013-06-12 12:49:00,
2013-06-12 05:54:00,69.0,34.5,29.74,ESE,104,0.0,0.0,28,0.00,,,0.00,63,WeatherCatV1.11B39,2013-06-12 12:54:00,
2013-06-12 05:59:00,69.2,34.7,29.75,ESE,104,0.0,0.0,28,0.00,,,0.00,77,WeatherCatV1.11B39,2013-06-12 12:59:00,
2013-06-12 06:04:00,70.4,36.6,29.75,ESE,104,0.0,0.0,29,0.00,,,0.00,91,WeatherCatV1.11B39,2013-06-12 13:04:00,
2013-06-12 06:09:00,71.4,37.5,29.75,ESE,104,0.0,0.0,29,0.00,,,0.00,111,WeatherCatV1.11B39,2013-06-12 13:09:00,
2013-06-12 06:14:00,72.6,38.5,29.76,ESE,104,0.0,1.0,29,0.00,,,0.00,128,WeatherCatV1.11B39,2013-06-12 13:14:00,
2013-06-12 06:19:00,73.3,38.2,29.76,ESE,104,1.0,1.0,28,0.00,,,0.00,144,WeatherCatV1.11B39,2013-06-12 13:19:00,
2013-06-12 06:24:00,74.1,38.0,29.76,ESE,107,2.0,3.0,27,0.00,,,0.00,167,WeatherCatV1.11B39,2013-06-12 13:24:00,
2013-06-12 06:29:00,75.3,36.0,29.76,ESE,107,0.0,1.0,24,0.00,,,0.00,183,WeatherCatV1.11B39,2013-06-12 13:29:00,
2013-06-12 06:34:00,76.2,35.7,29.77,ESE,107,0.0,1.0,23,0.00,,,0.00,195,WeatherCatV1.11B39,2013-06-12 13:34:00,
2013-06-12 06:39:00,77.0,36.3,29.77,NE,34,0.0,2.0,23,0.00,,,0.00,169,WeatherCatV1.11B39,2013-06-12 13:39:00,
2013-06-12 06:44:00,77.9,36.0,29.77,NE,34,1.0,2.0,22,0.00,,,0.00,230,WeatherCatV1.11B39,2013-06-12 13:44:00,
2013-06-12 06:49:00,79.4,36.0,29.77,NE,34,1.0,2.0,21,0.00,,,0.00,229,WeatherCatV1.11B39,2013-06-12 13:49:00,
2013-06-12 06:54:00,80.7,33.2,29.78,NE,34,0.0,0.0,18,0.00,,,0.00,279,WeatherCatV1.11B39,2013-06-12 13:54:00,
2013-06-12 06:59:00,82.0,32.9,29.78,NE,34,0.0,1.0,17,0.00,,,0.00,302,WeatherCatV1.11B39,2013-06-12 13:59:00,
2013-06-12 07:04:00,83.0,33.7,29.78,NE,34,1.0,2.0,17,0.00,,,0.00,281,WeatherCatV1.11B39,2013-06-12 14:04:00,
2013-06-12 07:09:00,83.5,34.1,29.78,NE,34,0.0,2.0,17,0.00,,,0.00,281,WeatherCatV1.11B39,2013-06-12 14:09:00,
2013-06-12 07:14:00,83.8,34.3,29.78,NE,34,0.0,2.0,17,0.00,,,0.00,260,WeatherCatV1.11B39,2013-06-12 14:14:00,
2013-06-12 07:19:00,84.2,34.6,29.78,NE,34,3.0,3.0,17,0.00,,,0.00,257,WeatherCatV1.11B39,2013-06-12 14:19:00,
2013-06-12 07:24:00,84.7,33.5,29.79,NE,37,0.0,1.0,16,0.00,,,0.00,336,WeatherCatV1.11B39,2013-06-12 14:24:00,
2013-06-12 07:29:00,85.2,33.9,29.79,ENE,65,0.0,2.0,16,0.00,,,0.00,308,WeatherCatV1.11B39,2013-06-12 14:29:00,
2013-06-12 07:34:00,85.7,34.3,29.79,ENE,67,1.0,1.0,16,0.00,,,0.00,341,WeatherCatV1.11B39,2013-06-12 14:34:00,
2013-06-12 07:39:00,86.0,32.9,29.79,ENE,67,1.0,1.0,15,0.00,,,0.00,367,WeatherCatV1.11B39,2013-06-12 14:39:00,
2013-06-12 07:44:00,86.0,32.9,29.79,East,80,3.0,6.0,15,0.00,,,0.00,374,WeatherCatV1.11B39,2013-06-12 14:44:00,
2013-06-12 07:49:00,86.3,33.2,29.79,SE,129,3.0,3.0,15,0.00,,,0.00,385,WeatherCatV1.11B39,2013-06-12 14:49:00,
2013-06-12 07:54:00,87.2,33.9,29.79,SE,128,2.0,3.0,15,0.00,,,0.00,388,WeatherCatV1.11B39,2013-06-12 14:54:00,
2013-06-12 07:59:00,87.3,34.0,29.79,ESE,123,0.0,1.0,15,0.00,,,0.00,366,WeatherCatV1.11B39,2013-06-12 14:59:00,
2013-06-12 08:04:00,87.5,34.1,29.79,ESE,112,0.0,3.0,15,0.00,,,0.00,533,WeatherCatV1.11B39,2013-06-12 15:04:00,
2013-06-12 08:09:00,88.2,34.7,29.79,East,92,3.0,5.0,15,0.00,,,0.00,496,WeatherCatV1.11B39,2013-06-12 15:09:00,
2013-06-12 08:14:00,88.4,34.8,29.79,East,93,0.0,3.0,15,0.00,,,0.00,575,WeatherCatV1.11B39,2013-06-12 15:14:00,
2013-06-12 08:19:00,89.1,35.4,29.79,East,90,2.0,3.0,15,0.00,,,0.00,629,WeatherCatV1.11B39,2013-06-12 15:19:00,
2013-06-12 08:24:00,89.9,34.3,29.79,East,91,1.0,2.0,14,0.00,,,0.00,633,WeatherCatV1.11B39,2013-06-12 15:24:00,
2013-06-12 08:29:00,90.7,34.9,29.79,East,98,1.0,4.0,14,0.00,,,0.00,650,WeatherCatV1.11B39,2013-06-12 15:29:00,
2013-06-12 08:34:00,91.1,35.2,29.79,East,100,1.0,1.0,14,0.00,,,0.00,673,WeatherCatV1.11B39,2013-06-12 15:34:00,
2013-06-12 08:39:00,91.3,35.4,29.79,ENE,78,1.0,6.0,14,0.00,,,0.00,679,WeatherCatV1.11B39,2013-06-12 15:39:00,
2013-06-12 08:44:00,91.7,35.7,29.79,ENE,74,1.0,6.0,14,0.00,,,0.00,729,WeatherCatV1.11B39,2013-06-12 15:44:00,
2013-06-12 08:49:00,91.6,35.6,29.78,South,184,1.0,4.0,14,0.00,,,0.00,738,WeatherCatV1.11B39,2013-06-12 15:49:00,
2013-06-12 08:54:00,92.8,34.7,29.78,ENE,73,1.0,3.0,13,0.00,,,0.00,747,WeatherCatV1.11B39,2013-06-12 15:54:00,
2013-06-12 08:59:00,92.4,36.3,29.78,ENE,72,0.0,2.0,14,0.00,,,0.00,749,WeatherCatV1.11B39,2013-06-12 15:59:00,
2013-06-12 09:04:00,93.5,35.2,29.78,East,95,4.0,5.0,13,0.00,,,0.00,752,WeatherCatV1.11B39,2013-06-12 16:04:00,
2013-06-12 09:09:00,94.5,36.0,29.78,ESE,103,3.0,4.0,13,0.00,,,0.00,754,WeatherCatV1.11B39,2013-06-12 16:09:00,
2013-06-12 09:14:00,93.9,35.6,29.78,East,101,3.0,5.0,13,0.00,,,0.00,752,WeatherCatV1.11B39,2013-06-12 16:14:00,
2013-06-12 09:19:00,93.8,35.5,29.77,East,100,1.0,3.0,13,0.00,,,0.00,759,WeatherCatV1.11B39,2013-06-12 16:19:00,
2013-06-12 09:24:00,94.1,33.7,29.77,East,96,3.0,3.0,12,0.00,,,0.00,763,WeatherCatV1.11B39,2013-06-12 16:24:00,
2013-06-12 09:29:00,94.5,36.0,29.77,SSW,208,2.0,5.0,13,0.00,,,0.00,766,WeatherCatV1.11B39,2013-06-12 16:29:00,
2013-06-12 09:34:00,95.6,34.9,29.77,SSW,208,0.0,3.0,12,0.00,,,0.00,775,WeatherCatV1.11B39,2013-06-12 16:34:00,
2013-06-12 09:39:00,96.0,35.2,29.77,East,91,2.0,4.0,12,0.00,,,0.00,710,WeatherCatV1.11B39,2013-06-12 16:39:00,
2013-06-12 09:40:00,95.8,35.0,29.77,East,91,1.0,2.0,12,0.00,,,0.00,671,WeatherCatV1.11B39,2013-06-12 16:40:00,
2013-06-12 09:45:00,96.0,35.2,29.77,East,99,3.0,5.0,12,0.00,,,0.00,675,WeatherCatV1.11B39,2013-06-12 16:45:00,
2013-06-12 09:50:00,96.2,35.3,29.77,ESE,116,3.0,6.0,12,0.00,,,0.00,766,WeatherCatV1.11B39,2013-06-12 16:50:00,
2013-06-12 09:55:00,96.7,37.7,29.77,ESE,116,1.0,2.0,13,0.00,,,0.00,817,WeatherCatV1.11B39,2013-06-12 16:55:00,
2013-06-12 10:00:00,97.9,36.6,29.77,South,171,5.0,8.0,12,0.00,,,0.00,837,WeatherCatV1.11B39,2013-06-12 17:00:00,
2013-06-12 10:05:00,96.8,35.8,29.76,South,183,2.0,5.0,12,0.00,,,0.00,814,WeatherCatV1.11B39,2013-06-12 17:05:00,
2013-06-12 10:10:00,98.1,34.6,29.76,SW,234,3.0,6.0,11,0.00,,,0.00,826,WeatherCatV1.11B39,2013-06-12 17:10:00,
2013-06-12 10:15:00,98.4,34.8,29.76,WSW,242,3.0,5.0,11,0.00,,,0.00,840,WeatherCatV1.11B39,2013-06-12 17:15:00,
2013-06-12 10:20:00,98.8,35.1,29.76,SSW,210,6.0,7.0,11,0.00,,,0.00,856,WeatherCatV1.11B39,2013-06-12 17:20:00,
2013-06-12 10:25:00,98.2,36.9,29.76,SSW,193,2.0,7.0,12,0.00,,,0.00,863,WeatherCatV1.11B39,2013-06-12 17:25:00,
2013-06-12 10:30:00,99.2,35.4,29.76,SSE,155,5.0,7.0,11,0.00,,,0.00,858,WeatherCatV1.11B39,2013-06-12 17:30:00,
2013-06-12 10:35:00,99.1,35.3,29.76,WNW,285,4.0,6.0,11,0.00,,,0.00,868,WeatherCatV1.11B39,2013-06-12 17:35:00,
2013-06-12 10:40:00,99.5,35.6,29.76,SSW,192,6.0,7.0,11,0.00,,,0.00,872,WeatherCatV1.11B39,2013-06-12 17:40:00,
2013-06-12 10:45:00,98.8,35.1,29.76,South,170,3.0,5.0,11,0.00,,,0.00,891,WeatherCatV1.11B39,2013-06-12 17:45:00,
2013-06-12 10:50:00,98.5,34.9,29.76,SW,235,6.0,6.0,11,0.00,,,0.00,877,WeatherCatV1.11B39,2013-06-12 17:50:00,
2013-06-12 10:55:00,99.9,36.0,29.76,West,265,6.0,7.0,11,0.00,,,0.00,904,WeatherCatV1.11B39,2013-06-12 17:55:00,
2013-06-12 11:00:00,100.0,33.6,29.76,SSW,203,3.0,6.0,10,0.00,,,0.00,912,WeatherCatV1.11B39,2013-06-12 18:00:00,
2013-06-12 11:05:00,100.7,34.2,29.76,West,268,2.0,5.0,10,0.00,,,0.00,919,WeatherCatV1.11B39,2013-06-12 18:05:00,
2013-06-12 11:10:00,98.6,35.0,29.75,SW,230,4.0,4.0,11,0.00,,,0.00,926,WeatherCatV1.11B39,2013-06-12 18:10:00,
2013-06-12 11:15:00,99.8,35.9,29.75,NW,309,3.0,8.0,11,0.00,,,0.00,930,WeatherCatV1.11B39,2013-06-12 18:15:00,
2013-06-12 11:20:00,100.3,33.9,29.75,WNW,292,4.0,10.0,10,0.00,,,0.00,935,WeatherCatV1.11B39,2013-06-12 18:20:00,
2013-06-12 11:25:00,99.3,35.5,29.75,NW,324,2.0,8.0,11,0.00,,,0.00,942,WeatherCatV1.11B39,2013-06-12 18:25:00,
2013-06-12 11:30:00,99.9,36.0,29.74,SSE,162,4.0,8.0,11,0.00,,,0.00,949,WeatherCatV1.11B39,2013-06-12 18:30:00,
2013-06-12 11:35:00,101.9,35.1,29.74,WSW,251,4.0,9.0,10,0.00,,,0.00,951,WeatherCatV1.11B39,2013-06-12 18:35:00,
2013-06-12 11:40:00,101.0,34.4,29.74,SW,234,1.0,3.0,10,0.00,,,0.00,960,WeatherCatV1.11B39,2013-06-12 18:40:00,
2013-06-12 11:45:00,102.9,35.8,29.74,SSW,196,4.0,9.0,10,0.00,,,0.00,962,WeatherCatV1.11B39,2013-06-12 18:45:00,
2013-06-12 11:50:00,102.5,35.5,29.74,WNW,286,3.0,7.0,10,0.00,,,0.00,967,WeatherCatV1.11B39,2013-06-12 18:50:00,
2013-06-12 11:55:00,103.6,33.7,29.74,WNW,286,8.0,9.0,9,0.00,,,0.00,976,WeatherCatV1.11B39,2013-06-12 18:55:00,
2013-06-12 12:00:00,103.1,33.3,29.73,SSW,209,5.0,11.0,9,0.00,,,0.00,979,WeatherCatV1.11B39,2013-06-12 19:00:00,
2013-06-12 12:05:00,103.6,33.7,29.73,West,261,5.0,9.0,9,0.00,,,0.00,981,WeatherCatV1.11B39,2013-06-12 19:05:00,
2013-06-12 12:10:00,103.0,33.2,29.73,SW,230,7.0,9.0,9,0.00,,,0.00,988,WeatherCatV1.11B39,2013-06-12 19:10:00,
2013-06-12 12:15:00,103.8,33.8,29.73,SW,232,4.0,10.0,9,0.00,,,0.00,993,WeatherCatV1.11B39,2013-06-12 19:15:00,
2013-06-12 12:20:00,103.8,33.8,29.73,West,273,7.0,11.0,9,0.00,,,0.00,995,WeatherCatV1.11B39,2013-06-12 19:20:00,
2013-06-12 12:25:00,102.7,33.0,29.72,West,280,1.0,7.0,9,0.00,,,0.00,930,WeatherCatV1.11B39,2013-06-12 19:25:00,
2013-06-12 12:30:00,103.6,33.7,29.72,West,272,10.0,10.0,9,0.00,,,0.00,965,WeatherCatV1.11B39,2013-06-12 19:30:00,
2013-06-12 12:35:00,103.3,33.5,29.72,SW,223,3.0,9.0,9,0.00,,,0.00,884,WeatherCatV1.11B39,2013-06-12 19:35:00,
2013-06-12 12:40:00,104.5,34.3,29.71,SW,235,7.0,12.0,9,0.00,,,0.00,863,WeatherCatV1.11B39,2013-06-12 19:40:00,
2013-06-12 12:45:00,104.3,34.2,29.71,SW,229,4.0,7.0,9,0.00,,,0.00,942,WeatherCatV1.11B39,2013-06-12 19:45:00,
2013-06-12 12:50:00,105.0,34.7,29.71,South,188,4.0,12.0,9,0.00,,,0.00,960,WeatherCatV1.11B39,2013-06-12 19:50:00,
2013-06-12 12:55:00,105.7,35.2,29.70,SW,236,7.0,8.0,9,0.00,,,0.00,962,WeatherCatV1.11B39,2013-06-12 19:55:00,
2013-06-12 13:00:00,106.4,32.8,29.70,West,269,7.0,12.0,8,0.00,,,0.00,949,WeatherCatV1.11B39,2013-06-12 20:00:00,
2013-06-12 13:05:00,105.2,31.9,29.70,WSW,251,5.0,10.0,8,0.00,,,0.00,960,WeatherCatV1.11B39,2013-06-12 20:05:00,
2013-06-12 13:10:00,103.5,30.7,29.70,SSE,165,5.0,6.0,8,0.00,,,0.00,958,WeatherCatV1.11B39,2013-06-12 20:10:00,
2013-06-12 13:15:00,104.5,31.4,29.69,SW,230,4.0,10.0,8,0.00,,,0.00,947,WeatherCatV1.11B39,2013-06-12 20:15:00,
2013-06-12 13:20:00,106.1,32.6,29.69,South,180,3.0,9.0,8,0.00,,,0.00,944,WeatherCatV1.11B39,2013-06-12 20:20:00,
2013-06-12 13:25:00,106.7,33.0,29.69,WSW,241,9.0,11.0,8,0.00,,,0.00,940,WeatherCatV1.11B39,2013-06-12 20:25:00,
2013-06-12 13:30:00,106.7,33.0,29.69,WNW,286,6.0,11.0,8,0.00,,,0.00,933,WeatherCatV1.11B39,2013-06-12 20:30:00,
2013-06-12 13:35:00,105.5,32.1,29.69,West,267,4.0,6.0,8,0.00,,,0.00,926,WeatherCatV1.11B39,2013-06-12 20:35:00,
2013-06-12 13:40:00,105.5,32.1,29.69,WNW,303,2.0,4.0,8,0.00,,,0.00,919,WeatherCatV1.11B39,2013-06-12 20:40:00,
2013-06-12 13:45:00,106.2,32.7,29.68,WSW,242,9.0,12.0,8,0.00,,,0.00,914,WeatherCatV1.11B39,2013-06-12 20:45:00,
2013-06-12 13:50:00,107.6,33.7,29.68,SW,214,5.0,13.0,8,0.00,,,0.00,905,WeatherCatV1.11B39,2013-06-12 20:50:00,
2013-06-12 13:55:00,107.9,33.9,29.68,SW,222,9.0,11.0,8,0.00,,,0.00,898,WeatherCatV1.11B39,2013-06-12 20:55:00,
2013-06-12 14:00:00,106.4,32.8,29.68,WSW,237,10.0,12.0,8,0.00,,,0.00,891,WeatherCatV1.11B39,2013-06-12 21:00:00,
2013-06-12 14:05:00,107.0,33.2,29.67,WSW,239,9.0,10.0,8,0.00,,,0.00,882,WeatherCatV1.11B39,2013-06-12 21:05:00,
2013-06-12 14:10:00,107.5,33.6,29.67,SW,232,5.0,13.0,8,0.00,,,0.00,872,WeatherCatV1.11B39,2013-06-12 21:10:00,
2013-06-12 14:15:00,107.0,33.2,29.67,NW,314,8.0,13.0,8,0.00,,,0.00,863,WeatherCatV1.11B39,2013-06-12 21:15:00,
2013-06-12 14:20:00,106.9,33.2,29.67,SW,230,3.0,16.0,8,0.00,,,0.00,854,WeatherCatV1.11B39,2013-06-12 21:20:00,
2013-06-12 14:25:00,106.9,33.2,29.67,SW,234,7.0,14.0,8,0.00,,,0.00,847,WeatherCatV1.11B39,2013-06-12 21:25:00,
2013-06-12 14:30:00,108.2,30.8,29.66,West,280,8.0,17.0,7,0.00,,,0.00,837,WeatherCatV1.11B39,2013-06-12 21:30:00,
2013-06-12 14:35:00,107.3,33.5,29.66,West,267,7.0,13.0,8,0.00,,,0.00,826,WeatherCatV1.11B39,2013-06-12 21:35:00,
2013-06-12 14:40:00,107.5,30.3,29.66,West,261,9.0,13.0,7,0.00,,,0.00,814,WeatherCatV1.11B39,2013-06-12 21:40:00,
2013-06-12 14:45:00,106.9,29.9,29.66,WSW,243,9.0,13.0,7,0.00,,,0.00,807,WeatherCatV1.11B39,2013-06-12 21:45:00,
2013-06-12 14:50:00,107.9,30.6,29.66,West,267,7.0,16.0,7,0.00,,,0.00,795,WeatherCatV1.11B39,2013-06-12 21:50:00,
2013-06-12 14:55:00,107.7,30.4,29.65,SSW,210,9.0,11.0,7,0.00,,,0.00,786,WeatherCatV1.11B39,2013-06-12 21:55:00,
2013-06-12 15:00:00,107.7,30.4,29.65,WSW,239,9.0,13.0,7,0.00,,,0.00,773,WeatherCatV1.11B39,2013-06-12 22:00:00,
2013-06-12 15:05:00,107.1,30.0,29.65,SW,228,7.0,16.0,7,0.00,,,0.00,758,WeatherCatV1.11B39,2013-06-12 22:05:00,
2013-06-12 15:10:00,107.3,33.5,29.65,SW,234,11.0,13.0,8,0.00,,,0.00,745,WeatherCatV1.11B39,2013-06-12 22:10:00,
2013-06-12 15:15:00,107.3,30.2,29.64,WNW,297,10.0,14.0,7,0.00,,,0.00,735,WeatherCatV1.11B39,2013-06-12 22:15:00,
2013-06-12 15:20:00,106.8,29.8,29.64,WSW,251,5.0,16.0,7,0.00,,,0.00,721,WeatherCatV1.11B39,2013-06-12 22:20:00,
2013-06-12 15:24:00,107.1,30.0,29.64,WSW,258,7.0,15.0,7,0.00,,,0.00,712,WeatherCatV1.11B39,2013-06-12 22:24:00,
2013-06-12 15:25:00,107.0,29.9,29.64,WSW,244,14.0,14.0,7,0.00,,,0.00,708,WeatherCatV1.11B39,2013-06-12 22:25:00,
2013-06-12 15:30:00,107.5,30.3,29.64,West,281,13.0,18.0,7,0.00,,,0.00,696,WeatherCatV1.11B39,2013-06-12 22:30:00,
2013-06-12 15:35:00,107.3,33.5,29.63,WSW,255,10.0,16.0,8,0.00,,,0.00,682,WeatherCatV1.11B39,2013-06-12 22:35:00,
2013-06-12 15:40:00,107.5,33.6,29.64,WSW,258,7.0,14.0,8,0.00,,,0.00,668,WeatherCatV1.11B39,2013-06-12 22:40:00,
2013-06-12 15:45:00,107.2,33.4,29.63,West,273,4.0,12.0,8,0.00,,,0.00,656,WeatherCatV1.11B39,2013-06-12 22:45:00,
2013-06-12 15:50:00,106.9,33.2,29.63,WSW,238,11.0,17.0,8,0.00,,,0.00,643,WeatherCatV1.11B39,2013-06-12 22:50:00,
2013-06-12 15:55:00,106.5,32.9,29.63,West,276,6.0,11.0,8,0.00,,,0.00,624,WeatherCatV1.11B39,2013-06-12 22:55:00,
2013-06-12 16:00:00,106.5,32.9,29.63,West,273,13.0,18.0,8,0.00,,,0.00,610,WeatherCatV1.11B39,2013-06-12 23:00:00,
2013-06-12 16:05:00,106.0,32.5,29.63,SW,232,10.0,14.0,8,0.00,,,0.00,598,WeatherCatV1.11B39,2013-06-12 23:05:00,
2013-06-12 16:10:00,106.2,32.7,29.62,West,268,7.0,14.0,8,0.00,,,0.00,582,WeatherCatV1.11B39,2013-06-12 23:10:00,
2013-06-12 16:15:00,106.4,32.8,29.63,WSW,253,17.0,18.0,8,0.00,,,0.00,568,WeatherCatV1.11B39,2013-06-12 23:15:00,
2013-06-12 16:20:00,106.3,32.7,29.62,WNW,297,11.0,13.0,8,0.00,,,0.00,554,WeatherCatV1.11B39,2013-06-12 23:20:00,
2013-06-12 16:25:00,105.9,32.4,29.62,West,268,11.0,17.0,8,0.00,,,0.00,536,WeatherCatV1.11B39,2013-06-12 23:25:00,
2013-06-12 16:30:00,105.7,32.3,29.62,WNW,286,7.0,15.0,8,0.00,,,0.00,522,WeatherCatV1.11B39,2013-06-12 23:30:00,
2013-06-12 16:35:00,106.0,32.5,29.62,WNW,293,13.0,19.0,8,0.00,,,0.00,510,WeatherCatV1.11B39,2013-06-12 23:35:00,
2013-06-12 16:40:00,105.7,32.3,29.61,SW,231,12.0,14.0,8,0.00,,,0.00,489,WeatherCatV1.11B39,2013-06-12 23:40:00,
2013-06-12 16:45:00,106.0,32.5,29.62,West,261,9.0,21.0,8,0.00,,,0.00,473,WeatherCatV1.11B39,2013-06-12 23:45:00,
2013-06-12 16:50:00,105.5,32.1,29.62,West,278,16.0,20.0,8,0.00,,,0.00,461,WeatherCatV1.11B39,2013-06-12 23:50:00,
2013-06-12 16:55:00,105.3,32.0,29.62,SW,236,6.0,13.0,8,0.00,,,0.00,441,WeatherCatV1.11B39,2013-06-12 23:55:00,
2013-06-12 17:00:00,105.9,32.4,29.62,West,265,13.0,19.0,8,0.00,,,0.00,427,WeatherCatV1.11B39,2013-06-13 00:00:00,
2013-06-12 17:05:00,105.4,32.1,29.61,West,272,7.0,13.0,8,0.00,,,0.00,411,WeatherCatV1.11B39,2013-06-13 00:05:00,
2013-06-12 17:10:00,105.3,32.0,29.61,West,263,16.0,19.0,8,0.00,,,0.00,392,WeatherCatV1.11B39,2013-06-13 00:10:00,
2013-06-12 17:15:00,105.4,32.1,29.61,WNW,290,7.0,15.0,8,0.00,,,0.00,378,WeatherCatV1.11B39,2013-06-13 00:15:00,
2013-06-12 17:20:00,105.2,31.9,29.61,West,277,14.0,14.0,8,0.00,,,0.00,362,WeatherCatV1.11B39,2013-06-13 00:20:00,
2013-06-12 17:25:00,105.0,31.8,29.61,West,274,11.0,12.0,8,0.00,,,0.00,345,WeatherCatV1.11B39,2013-06-13 00:25:00,
2013-06-12 17:30:00,104.7,31.6,29.61,West,267,8.0,12.0,8,0.00,,,0.00,330,WeatherCatV1.11B39,2013-06-13 00:30:00,
2013-06-12 17:35:00,104.6,31.5,29.61,WNW,301,6.0,11.0,8,0.00,,,0.00,315,WeatherCatV1.11B39,2013-06-13 00:35:00,
2013-06-12 17:40:00,104.4,31.3,29.61,West,267,10.0,15.0,8,0.00,,,0.00,297,WeatherCatV1.11B39,2013-06-13 00:40:00,
2013-06-12 17:45:00,104.3,31.3,29.61,West,274,8.0,12.0,8,0.00,,,0.00,281,WeatherCatV1.11B39,2013-06-13 00:45:00,
2013-06-12 17:50:00,104.1,31.1,29.61,WNW,282,7.0,14.0,8,0.00,,,0.00,265,WeatherCatV1.11B39,2013-06-13 00:50:00,
2013-06-12 17:55:00,103.6,30.8,29.61,WSW,253,4.0,13.0,8,0.00,,,0.00,246,WeatherCatV1.11B39,2013-06-13 00:55:00,
2013-06-12 18:00:00,103.6,30.8,29.61,WSW,250,8.0,17.0,8,0.00,,,0.00,232,WeatherCatV1.11B39,2013-06-13 01:00:00,
2013-06-12 18:05:00,103.5,33.6,29.61,WNW,288,5.0,9.0,9,0.00,,,0.00,214,WeatherCatV1.11B39,2013-06-13 01:05:00,
2013-06-12 18:10:00,103.6,33.7,29.62,WNW,303,3.0,8.0,9,0.00,,,0.00,193,WeatherCatV1.11B39,2013-06-13 01:10:00,
2013-06-12 18:15:00,103.2,30.5,29.61,SW,224,6.0,10.0,8,0.00,,,0.00,176,WeatherCatV1.11B39,2013-06-13 01:15:00,
2013-06-12 18:20:00,102.9,33.2,29.61,WNW,285,4.0,10.0,9,0.00,,,0.00,158,WeatherCatV1.11B39,2013-06-13 01:20:00,
2013-06-12 18:25:00,102.8,33.1,29.62,WNW,294,7.0,13.0,9,0.00,,,0.00,139,WeatherCatV1.11B39,2013-06-13 01:25:00,
2013-06-12 18:30:00,102.7,33.0,29.62,WSW,246,7.0,9.0,9,0.00,,,0.00,121,WeatherCatV1.11B39,2013-06-13 01:30:00,
2013-06-12 18:35:00,102.3,32.7,29.62,West,274,5.0,11.0,9,0.00,,,0.00,105,WeatherCatV1.11B39,2013-06-13 01:35:00,
2013-06-12 18:40:00,101.8,32.4,29.62,WSW,255,8.0,10.0,9,0.00,,,0.00,88,WeatherCatV1.11B39,2013-06-13 01:40:00,
2013-06-12 18:45:00,101.4,32.1,29.62,WNW,282,5.0,17.0,9,0.00,,,0.00,76,WeatherCatV1.11B39,2013-06-13 01:45:00,
2013-06-12 18:50:00,101.0,31.8,29.62,WSW,257,5.0,12.0,9,0.00,,,0.00,62,WeatherCatV1.11B39,2013-06-13 01:50:00,
2013-06-12 18:55:00,100.7,31.5,29.62,West,277,2.0,9.0,9,0.00,,,0.00,49,WeatherCatV1.11B39,2013-06-13 01:55:00,
2013-06-12 19:00:00,100.3,31.2,29.62,West,263,3.0,7.0,9,0.00,,,0.00,39,WeatherCatV1.11B39,2013-06-13 02:00:00,
2013-06-12 19:05:00,100.0,33.6,29.62,West,265,3.0,8.0,10,0.00,,,0.00,30,WeatherCatV1.11B39,2013-06-13 02:05:00,
2013-06-12 19:10:00,99.6,33.3,29.62,West,278,4.0,8.0,10,0.00,,,0.00,21,WeatherCatV1.11B39,2013-06-13 02:10:00,
2013-06-12 19:15:00,99.2,33.0,29.62,West,280,7.0,9.0,10,0.00,,,0.00,18,WeatherCatV1.11B39,2013-06-13 02:15:00,
2013-06-12 19:20:00,98.8,32.7,29.63,WNW,282,6.0,9.0,10,0.00,,,0.00,12,WeatherCatV1.11B39,2013-06-13 02:20:00,
2013-06-12 19:25:00,98.4,32.4,29.63,West,273,4.0,8.0,10,0.00,,,0.00,7,WeatherCatV1.11B39,2013-06-13 02:25:00,
2013-06-12 19:30:00,97.9,34.4,29.62,West,269,2.0,5.0,11,0.00,,,0.00,5,WeatherCatV1.11B39,2013-06-13 02:30:00,
2013-06-12 19:35:00,97.4,34.1,29.63,West,265,4.0,5.0,11,0.00,,,0.00,0,WeatherCatV1.11B39,2013-06-13 02:35:00,
2013-06-12 19:40:00,97.1,33.8,29.63,WNW,288,9.0,12.0,11,0.00,,,0.00,0,WeatherCatV1.11B39,2013-06-13 02:40:00,
2013-06-12 19:45:00,97.1,33.8,29.63,WNW,290,4.0,12.0,11,0.00,,,0.00,0,WeatherCatV1.11B39,2013-06-13 02:45:00,
2013-06-12 19:50:00,97.0,33.7,29.63,WNW,288,6.0,6.0,11,0.00,,,0.00,0,WeatherCatV1.11B39,2013-06-13 02:50:00,
2013-06-12 19:55:00,96.7,33.5,29.63,West,274,6.0,6.0,11,0.00,,,0.00,0,WeatherCatV1.11B39,2013-06-13 02:55:00,
2013-06-12 20:00:00,96.2,35.3,29.63,West,263,5.0,7.0,12,0.00,,,0.00,0,WeatherCatV1.11B39,2013-06-13 03:00:00,
2013-06-12 20:05:00,95.8,35.0,29.64,WNW,286,1.0,3.0,12,0.00,,,0.00,0,WeatherCatV1.11B39,2013-06-13 03:05:00,
2013-06-12 20:10:00,95.3,34.6,29.64,NW,305,0.0,5.0,12,0.00,,,0.00,0,WeatherCatV1.11B39,2013-06-13 03:10:00,
2013-06-12 20:15:00,94.5,34.0,29.64,WSW,256,4.0,5.0,12,0.00,,,0.00,0,WeatherCatV1.11B39,2013-06-13 03:15:00,
2013-06-12 20:20:00,94.2,33.8,29.64,WNW,283,0.0,2.0,12,0.00,,,0.00,0,WeatherCatV1.11B39,2013-06-13 03:20:00,
2013-06-12 20:25:00,93.6,35.3,29.64,WNW,282,0.0,1.0,13,0.00,,,0.00,0,WeatherCatV1.11B39,2013-06-13 03:25:00,
2013-06-12 20:30:00,93.3,33.1,29.64,WNW,286,1.0,4.0,12,0.00,,,0.00,0,WeatherCatV1.11B39,2013-06-13 03:30:00,
2013-06-12 20:35:00,93.6,33.3,29.64,West,259,3.0,5.0,12,0.00,,,0.00,0,WeatherCatV1.11B39,2013-06-13 03:35:00,
2013-06-12 20:40:00,92.7,34.6,29.65,WSW,257,2.0,3.0,13,0.00,,,0.00,0,WeatherCatV1.11B39,2013-06-13 03:40:00,
2013-06-12 20:45:00,92.3,34.3,29.65,SW,228,2.0,2.0,13,0.00,,,0.00,0,WeatherCatV1.11B39,2013-06-13 03:45:00,
2013-06-12 20:50:00,91.7,33.8,29.65,West,272,2.0,2.0,13,0.00,,,0.00,0,WeatherCatV1.11B39,2013-06-13 03:50:00,
2013-06-12 20:55:00,91.6,33.8,29.65,WSW,257,3.0,6.0,13,0.00,,,0.00,0,WeatherCatV1.11B39,2013-06-13 03:55:00,
2013-06-12 21:00:00,91.6,33.8,29.66,WSW,257,2.0,3.0,13,0.00,,,0.00,0,WeatherCatV1.11B39,2013-06-13 04:00:00,
2013-06-12 21:01:00,91.6,33.8,29.65,WSW,257,2.0,3.0,13,0.00,,,0.00,0,WeatherCatV1.11B39,2013-06-13 04:01:00,
2013-06-12 21:06:00,91.3,33.5,29.66,WSW,254,0.0,3.0,13,0.00,,,0.00,0,WeatherCatV1.11B39,2013-06-13 04:06:00,
2013-06-12 21:11:00,92.4,32.4,29.66,NW,319,2.0,3.0,12,0.00,,,0.00,0,WeatherCatV1.11B39,2013-06-13 04:11:00,
2013-06-12 21:16:00,93.1,32.9,29.65,NW,315,1.0,2.0,12,0.00,,,0.00,0,WeatherCatV1.11B39,2013-06-13 04:16:00,
2013-06-12 21:21:00,92.7,32.6,29.66,NNW,331,1.0,5.0,12,0.00,,,0.00,0,WeatherCatV1.11B39,2013-06-13 04:21:00,
2013-06-12 21:26:00,92.9,32.8,29.66,NNW,331,2.0,3.0,12,0.00,,,0.00,0,WeatherCatV1.11B39,2013-06-13 04:26:00,
2013-06-12 21:31:00,92.8,32.7,29.66,NNW,331,0.0,0.0,12,0.00,,,0.00,0,WeatherCatV1.11B39,2013-06-13 04:31:00,
2013-06-12 21:36:00,91.1,33.4,29.66,NNW,331,0.0,1.0,13,0.00,,,0.00,0,WeatherCatV1.11B39,2013-06-13 04:36:00,
2013-06-12 21:41:00,89.2,33.8,29.66,NNW,331,0.0,1.0,14,0.00,,,0.00,0,WeatherCatV1.11B39,2013-06-13 04:41:00,
2013-06-12 21:46:00,87.9,34.5,29.66,NNW,331,0.0,1.0,15,0.00,,,0.00,0,WeatherCatV1.11B39,2013-06-13 04:46:00,
2013-06-12 21:51:00,87.2,35.5,29.66,NNW,331,0.0,0.0,16,0.00,,,0.00,0,WeatherCatV1.11B39,2013-06-13 04:51:00,
2013-06-12 21:56:00,86.4,34.9,29.66,East,86,3.0,5.0,16,0.00,,,0.00,0,WeatherCatV1.11B39,2013-06-13 04:56:00,
2013-06-12 22:01:00,86.6,33.4,29.66,East,88,3.0,3.0,15,0.00,,,0.00,0,WeatherCatV1.11B39,2013-06-13 05:01:00,
2013-06-12 22:06:00,86.6,33.4,29.66,East,97,2.0,3.0,15,0.00,,,0.00,0,WeatherCatV1.11B39,2013-06-13 05:06:00,
2013-06-12 22:11:00,86.6,33.4,29.66,East,97,0.0,1.0,15,0.00,,,0.00,0,WeatherCatV1.11B39,2013-06-13 05:11:00,
2013-06-12 22:16:00,86.3,34.8,29.66,East,97,2.0,3.0,16,0.00,,,0.00,0,WeatherCatV1.11B39,2013-06-13 05:16:00,
2013-06-12 22:21:00,86.1,34.6,29.66,East,98,1.0,2.0,16,0.00,,,0.00,0,WeatherCatV1.11B39,2013-06-13 05:21:00,
2013-06-12 22:26:00,86.2,34.7,29.66,East,97,1.0,2.0,16,0.00,,,0.00,0,WeatherCatV1.11B39,2013-06-13 05:26:00,
2013-06-12 22:31:00,85.9,34.5,29.66,East,97,1.0,3.0,16,0.00,,,0.00,0,WeatherCatV1.11B39,2013-06-13 05:31:00,
2013-06-12 22:36:00,85.2,33.9,29.66,East,93,2.0,4.0,16,0.00,,,0.00,0,WeatherCatV1.11B39,2013-06-13 05:36:00,
2013-06-12 22:41:00,85.2,33.9,29.66,East,91,5.0,5.0,16,0.00,,,0.00,0,WeatherCatV1.11B39,2013-06-13 05:41:00,
2013-06-12 22:46:00,86.6,33.4,29.66,ESE,102,2.0,4.0,15,0.00,,,0.00,0,WeatherCatV1.11B39,2013-06-13 05:46:00,
2013-06-12 22:51:00,86.9,33.7,29.66,East,101,1.0,4.0,15,0.00,,,0.00,0,WeatherCatV1.11B39,2013-06-13 05:51:00,
2013-06-12 22:56:00,86.8,33.6,29.66,ESE,111,4.0,5.0,15,0.00,,,0.00,0,WeatherCatV1.11B39,2013-06-13 05:56:00,
2013-06-12 23:01:00,86.2,33.1,29.66,ESE,110,2.0,3.0,15,0.00,,,0.00,0,WeatherCatV1.11B39,2013-06-13 06:01:00,
2013-06-12 23:06:00,85.6,32.6,29.66,ESE,103,1.0,4.0,15,0.00,,,0.00,0,WeatherCatV1.11B39,2013-06-13 06:06:00,
2013-06-12 23:11:00,86.0,32.9,29.66,East,97,1.0,2.0,15,0.00,,,0.00,0,WeatherCatV1.11B39,2013-06-13 06:11:00,
2013-06-12 23:12:00,86.0,34.6,29.66,East,97,2.0,2.0,16,0.00,,,0.00,0,WeatherCatV1.11B39,2013-06-13 06:12:00,
2013-06-12 23:17:00,85.6,34.2,29.66,East,85,2.0,5.0,16,0.00,,,0.00,0,WeatherCatV1.11B39,2013-06-13 06:17:00,
2013-06-12 23:22:00,85.4,34.1,29.66,East,81,3.0,5.0,16,0.00,,,0.00,0,WeatherCatV1.11B39,2013-06-13 06:22:00,
2013-06-12 23:27:00,85.7,34.3,29.66,ESE,113,1.0,5.0,16,0.00,,,0.00,0,WeatherCatV1.11B39,2013-06-13 06:27:00,
2013-06-12 23:32:00,85.3,34.0,29.67,ESE,112,1.0,2.0,16,0.00,,,0.00,0,WeatherCatV1.11B39,2013-06-13 06:32:00,
2013-06-12 23:37:00,85.0,33.8,29.67,ESE,109,3.0,3.0,16,0.00,,,0.00,0,WeatherCatV1.11B39,2013-06-13 06:37:00,
2013-06-12 23:42:00,85.3,34.0,29.67,East,99,1.0,2.0,16,0.00,,,0.00,0,WeatherCatV1.11B39,2013-06-13 06:42:00,
2013-06-12 23:47:00,85.6,34.2,29.67,SE,124,2.0,5.0,16,0.00,,,0.00,0,WeatherCatV1.11B39,2013-06-13 06:47:00,
2013-06-12 23:52:00,85.8,35.9,29.67,SE,124,1.0,3.0,17,0.00,,,0.00,0,WeatherCatV1.11B39,2013-06-13 06:52:00,
2013-06-12 23:57:00,85.1,33.8,29.67,ESE,120,0.0,2.0,16,0.00,,,0.00,0,WeatherCatV1.11B39,2013-06-13 06:57:00,